createdAt,value
2019-04-30T00:01:55.897Z,10.33
2019-04-30T00:04:40.512Z,10.30
2019-04-30T00:07:18.898Z,11.17
2019-04-30T00:10:22.296Z,11.90
2019-04-30T00:12:57.981Z,11.33
2019-04-30T00:15:52.785Z,11.50
2019-04-30T00:18:39.410Z,11.90
2019-04-30T00:21:19.216Z,10.97
2019-04-30T00:24:15.901Z,10.47
2019-04-30T00:26:56.097Z,11.83
2019-04-30T00:29:31.144Z,12.10
2019-04-30T00:32:07.696Z,11.97
2019-04-30T00:34:40.098Z,10.70
2019-04-30T00:37:18.853Z,11.23
2019-04-30T00:39:51.315Z,11.97
2019-04-30T00:42:28.410Z,15.13
2019-04-30T00:45:03.968Z,14.13
2019-04-30T00:47:35.180Z,14.80
2019-04-30T00:50:12.209Z,14.50
2019-04-30T00:53:12.210Z,14.47
2019-04-30T00:55:44.241Z,13.90
2019-04-30T00:58:29.018Z,13.13
2019-04-30T01:01:04.894Z,13.63
2019-04-30T01:03:46.474Z,13.37
2019-04-30T01:06:17.131Z,12.93
2019-04-30T01:08:58.292Z,13.00
2019-04-30T01:11:25.413Z,12.80
2019-04-30T01:13:54.711Z,13.83
2019-04-30T01:16:27.674Z,14.33
2019-04-30T01:18:54.162Z,12.13
2019-04-30T01:21:26.030Z,11.50
2019-04-30T01:23:54.926Z,11.57
2019-04-30T01:26:30.993Z,10.97
2019-04-30T01:29:21.497Z,8.70
2019-04-30T01:31:58.784Z,9.00
2019-04-30T01:35:23.755Z,7.93
2019-04-30T01:41:03.971Z,10.10
2019-04-30T01:43:54.222Z,11.23
2019-04-30T01:46:51.838Z,10.60
2019-04-30T01:49:49.586Z,10.47
2019-04-30T01:53:13.083Z,10.90
2019-04-30T01:56:05.617Z,10.50
2019-04-30T01:59:05.463Z,10.00
2019-04-30T02:01:55.627Z,8.90
2019-04-30T02:04:31.409Z,9.90
2019-04-30T02:07:02.891Z,10.87
2019-04-30T02:09:36.473Z,9.60
2019-04-30T02:12:07.186Z,8.93
2019-04-30T02:14:45.555Z,8.70
2019-04-30T02:17:30.667Z,8.83
2019-04-30T02:20:05.342Z,7.10
2019-04-30T02:22:42.717Z,7.47
2019-04-30T02:25:13.417Z,7.93
2019-04-30T02:27:49.471Z,8.30
2019-04-30T02:30:23.239Z,8.30
2019-04-30T02:33:03.831Z,7.87
2019-04-30T02:41:34.103Z,8.73
2019-04-30T02:44:09.515Z,8.90
2019-04-30T02:46:42.834Z,8.80
2019-04-30T02:49:20.359Z,8.43
2019-04-30T02:51:56.600Z,7.80
2019-04-30T02:54:40.365Z,8.43
2019-04-30T02:57:14.724Z,8.53
2019-04-30T03:00:09.693Z,8.07
2019-04-30T03:02:47.078Z,9.37
2019-04-30T03:05:16.174Z,8.00
2019-04-30T03:07:53.033Z,8.77
2019-04-30T03:10:20.015Z,9.77
2019-04-30T03:12:54.306Z,8.77
2019-04-30T03:15:29.826Z,9.47
2019-04-30T03:18:41.130Z,9.57
2019-04-30T03:21:15.887Z,9.93
2019-04-30T03:23:50.154Z,9.57
2019-04-30T03:26:20.009Z,9.57
2019-04-30T03:28:49.416Z,10.20
2019-04-30T03:31:22.411Z,9.93
2019-04-30T03:33:55.547Z,10.80
2019-04-30T03:36:41.227Z,10.33
2019-04-30T03:39:11.233Z,9.97
2019-04-30T03:41:46.536Z,10.80
2019-04-30T03:44:25.580Z,10.17
2019-04-30T03:46:59.175Z,10.23
2019-04-30T03:49:45.876Z,10.47
2019-04-30T03:52:19.698Z,10.67
2019-04-30T03:54:49.433Z,10.50
2019-04-30T03:57:24.523Z,11.23
2019-04-30T03:59:59.432Z,11.13
2019-04-30T04:02:53.415Z,11.87
2019-04-30T04:05:56.031Z,11.87
2019-04-30T04:08:44.112Z,12.50
2019-04-30T04:11:23.451Z,13.10
2019-04-30T04:13:59.730Z,14.23
2019-04-30T04:16:32.460Z,13.77
2019-04-30T04:19:15.978Z,12.67
2019-04-30T04:21:50.734Z,13.87
2019-04-30T04:24:20.449Z,13.77
2019-04-30T04:26:52.844Z,13.60
2019-04-30T04:29:33.346Z,13.90
2019-04-30T04:32:02.745Z,13.93
2019-04-30T04:34:40.104Z,13.53
2019-04-30T04:37:15.690Z,14.53
2019-04-30T04:39:53.420Z,13.47
2019-04-30T04:42:23.751Z,13.50
2019-04-30T04:44:59.708Z,14.87
2019-04-30T04:47:30.940Z,13.47
2019-04-30T04:50:02.681Z,13.77
2019-04-30T04:55:30.134Z,13.90
2019-04-30T04:58:12.850Z,14.77
2019-04-30T05:00:45.615Z,14.73
2019-04-30T05:03:24.278Z,13.97
2019-04-30T05:06:05.626Z,14.03
2019-04-30T05:08:52.813Z,14.97
2019-04-30T05:11:22.328Z,14.67
2019-04-30T05:13:53.905Z,13.87
2019-04-30T05:16:22.899Z,15.23
2019-04-30T05:18:52.273Z,15.67
2019-04-30T05:21:41.161Z,14.67
2019-04-30T05:24:01.173Z,14.57
2019-04-30T05:29:53.208Z,15.70
2019-04-30T05:33:08.822Z,15.10
2019-04-30T05:38:43.004Z,15.57
2019-04-30T06:20:51.611Z,16.17
2019-04-30T06:58:22.704Z,18.73
2019-04-30T07:00:33.717Z,20.23
2019-04-30T07:00:59.629Z,16.80
2019-04-30T07:03:29.458Z,17.33
2019-04-30T07:05:58.772Z,16.33
2019-04-30T07:08:55.685Z,15.67
2019-04-30T07:11:29.617Z,15.70
2019-04-30T07:14:00.004Z,16.93
2019-04-30T07:16:29.831Z,16.33
2019-04-30T07:19:09.327Z,17.70
2019-04-30T07:21:42.867Z,16.67
2019-04-30T07:24:14.053Z,15.70
2019-04-30T07:26:42.657Z,15.93
2019-04-30T07:29:13.215Z,15.10
2019-04-30T07:31:42.273Z,15.07
2019-04-30T07:34:11.123Z,15.33
2019-04-30T07:36:46.863Z,15.10
2019-04-30T07:39:11.807Z,15.20
2019-04-30T07:41:40.779Z,13.63
2019-04-30T07:44:12.930Z,14.20
2019-04-30T07:46:45.474Z,14.20
2019-04-30T07:49:20.081Z,14.23
2019-04-30T07:51:51.321Z,14.77
2019-04-30T07:54:19.130Z,14.90
2019-04-30T07:56:50.672Z,15.77
2019-04-30T07:59:20.126Z,15.17
2019-04-30T08:02:03.712Z,15.90
2019-04-30T08:04:37.319Z,16.83
2019-04-30T08:07:09.691Z,18.80
2019-04-30T08:09:42.075Z,19.97
2019-04-30T08:12:10.140Z,19.50
2019-04-30T08:14:39.484Z,19.17
2019-04-30T08:17:08.871Z,18.20
2019-04-30T08:19:49.031Z,18.03
2019-04-30T08:22:20.654Z,19.27
2019-04-30T08:24:49.840Z,21.43
2019-04-30T08:27:19.827Z,20.77
2019-04-30T08:29:49.884Z,22.07
2019-04-30T08:32:24.194Z,22.27
2019-04-30T08:34:52.819Z,21.83
2019-04-30T08:37:21.680Z,21.33
2019-04-30T08:39:50.479Z,22.37
2019-04-30T08:42:30.750Z,20.87
2019-04-30T08:44:58.555Z,20.37
2019-04-30T08:47:33.788Z,20.77
2019-04-30T08:50:03.073Z,20.57
2019-04-30T08:52:32.458Z,21.13
2019-04-30T08:55:13.250Z,20.27
2019-04-30T08:57:33.896Z,19.73
2019-04-30T09:00:02.631Z,20.80
2019-04-30T09:02:31.196Z,19.73
2019-04-30T09:05:03.981Z,21.33
2019-04-30T09:07:35.775Z,20.93
2019-04-30T09:10:10.835Z,19.93
2019-04-30T09:12:39.958Z,21.77
2019-04-30T09:15:09.168Z,20.97
2019-04-30T09:24:04.021Z,22.93
2019-04-30T09:26:54.249Z,22.40
2019-04-30T09:33:24.006Z,23.33
2019-04-30T09:37:04.534Z,23.73
2019-04-30T09:43:30.410Z,15.73
2019-04-30T09:48:50.810Z,13.70
2019-04-30T09:51:20.628Z,12.43
2019-04-30T09:53:56.877Z,12.10
2019-04-30T09:56:20.308Z,12.40
2019-04-30T09:58:49.428Z,12.70
2019-04-30T10:01:17.911Z,11.33
2019-04-30T10:03:46.862Z,11.27
2019-04-30T10:06:15.865Z,11.40
2019-04-30T10:08:48.487Z,10.73
2019-04-30T10:11:34.161Z,11.37
2019-04-30T10:14:02.742Z,11.80
2019-04-30T10:16:50.332Z,10.50
2019-04-30T10:19:19.223Z,10.23
2019-04-30T10:21:48.944Z,10.30
2019-04-30T10:24:19.486Z,10.37
2019-04-30T10:26:48.541Z,10.90
2019-04-30T10:29:17.698Z,11.37
2019-04-30T10:31:48.992Z,11.10
2019-04-30T10:34:17.952Z,10.67
2019-04-30T10:36:49.658Z,10.17
2019-04-30T10:39:21.362Z,11.10
2019-04-30T10:41:48.404Z,10.90
2019-04-30T10:44:18.709Z,9.73
2019-04-30T10:46:47.499Z,9.87
2019-04-30T10:49:16.056Z,8.97
2019-04-30T10:51:44.654Z,9.30
2019-04-30T10:54:23.163Z,9.30
2019-04-30T10:56:43.576Z,8.33
2019-04-30T10:59:12.278Z,8.03
2019-04-30T11:01:40.884Z,7.73
2019-04-30T11:04:10.193Z,7.73
2019-04-30T11:06:38.813Z,7.40
2019-04-30T11:09:14.386Z,7.07
2019-04-30T11:11:43.021Z,6.20
2019-04-30T11:14:11.568Z,7.67
2019-04-30T11:16:40.079Z,8.37
2019-04-30T11:19:09.406Z,7.90
2019-04-30T11:21:38.542Z,9.43
2019-04-30T11:24:09.187Z,9.63
2019-04-30T11:26:40.322Z,8.67
2019-04-30T11:29:08.284Z,9.20
2019-04-30T11:31:46.230Z,9.10
2019-04-30T11:34:14.922Z,9.20
2019-04-30T11:36:48.106Z,10.43
2019-04-30T11:39:24.087Z,11.43
2019-04-30T11:41:52.909Z,12.27
2019-04-30T11:44:30.300Z,11.93
2019-04-30T11:47:14.764Z,11.23
2019-04-30T11:49:43.559Z,11.37
2019-04-30T11:52:14.687Z,10.27
2019-04-30T11:54:51.629Z,10.60
2019-04-30T11:57:14.208Z,9.83
2019-04-30T11:59:42.994Z,10.47
2019-04-30T12:02:16.840Z,10.00
2019-04-30T12:04:45.520Z,9.47
2019-04-30T12:26:45.138Z,10.37
2019-04-30T12:31:56.160Z,10.37
2019-04-30T12:34:25.221Z,8.50
2019-04-30T12:36:54.008Z,8.53
2019-04-30T12:39:22.543Z,10.10
2019-04-30T12:41:51.209Z,11.27
2019-04-30T12:44:19.878Z,10.13
2019-04-30T12:46:48.916Z,11.30
2019-04-30T12:49:19.012Z,10.70
2019-04-30T12:52:12.965Z,9.87
2019-04-30T12:54:48.777Z,8.87
2019-04-30T12:57:33.505Z,7.93
2019-04-30T13:18:29.478Z,10.13
2019-04-30T13:28:23.132Z,8.67
2019-04-30T13:48:49.237Z,11.97
2019-04-30T13:51:18.014Z,12.27
2019-04-30T13:53:46.853Z,10.77
2019-04-30T13:56:15.560Z,10.07
2019-04-30T13:58:44.198Z,10.80
2019-04-30T14:01:12.727Z,11.83
2019-04-30T14:03:48.933Z,10.73
2019-04-30T14:06:19.758Z,11.40
2019-04-30T14:08:50.048Z,10.63
2019-04-30T14:11:27.460Z,11.47
2019-04-30T14:17:03.349Z,10.53
2019-04-30T14:20:04.105Z,9.10
2019-04-30T14:22:38.710Z,11.33
2019-04-30T14:32:12.440Z,10.77
2019-04-30T14:44:32.381Z,9.13
2019-04-30T14:47:20.873Z,10.87
2019-04-30T14:50:05.959Z,9.77
2019-04-30T14:52:40.367Z,9.90
2019-04-30T14:55:29.957Z,9.30
2019-04-30T14:58:13.863Z,10.23
2019-04-30T15:01:03.402Z,9.70
2019-04-30T15:03:39.371Z,10.40
2019-04-30T15:06:10.198Z,10.53
2019-04-30T15:08:44.406Z,10.93
2019-04-30T15:11:28.745Z,9.63
2019-04-30T15:14:02.090Z,9.30
2019-04-30T15:16:57.944Z,7.70
2019-04-30T15:19:29.859Z,8.10
2019-04-30T15:22:06.428Z,8.57
2019-04-30T15:24:39.151Z,8.87
2019-04-30T15:27:10.811Z,8.77
2019-04-30T15:29:39.592Z,8.70
2019-04-30T15:32:08.747Z,8.30
2019-04-30T15:34:40.861Z,8.23
2019-04-30T15:37:30.551Z,8.47
2019-04-30T15:39:59.695Z,8.83
2019-04-30T15:42:30.339Z,9.07
2019-04-30T15:45:02.178Z,9.13
2019-04-30T15:47:44.990Z,8.83
2019-04-30T15:50:14.421Z,9.43
2019-04-30T15:52:46.424Z,8.60
2019-04-30T15:55:18.944Z,8.97
2019-04-30T15:58:12.500Z,8.97
2019-04-30T16:00:41.299Z,9.47
2019-04-30T16:03:18.434Z,10.33
2019-04-30T16:05:48.912Z,9.80
2019-04-30T16:08:29.035Z,9.70
2019-04-30T16:11:19.471Z,10.97
2019-04-30T16:17:14.522Z,12.03
2019-04-30T16:19:46.277Z,12.23
2019-04-30T16:22:15.254Z,11.60
2019-04-30T16:24:44.128Z,11.03
2019-04-30T16:27:16.078Z,9.77
2019-04-30T16:29:46.796Z,9.87
2019-04-30T16:32:16.570Z,9.47
2019-04-30T16:35:10.013Z,8.83
2019-04-30T16:37:41.798Z,8.23
2019-04-30T16:40:19.497Z,9.37
2019-04-30T16:42:51.432Z,8.33
2019-04-30T16:45:30.862Z,8.30
2019-04-30T16:48:33.050Z,8.70
2019-04-30T16:57:34.112Z,8.00
2019-04-30T17:02:55.610Z,7.67
2019-04-30T17:05:45.225Z,7.93
2019-04-30T17:08:29.048Z,8.37
2019-04-30T17:11:24.497Z,8.30
2019-04-30T17:14:31.313Z,8.13
2019-04-30T17:17:22.791Z,6.63
2019-04-30T17:20:01.644Z,6.93
2019-04-30T17:22:31.292Z,7.50
2019-04-30T17:25:13.530Z,7.07
2019-04-30T17:28:04.374Z,6.60
2019-04-30T17:30:41.161Z,7.00
2019-04-30T17:33:36.061Z,6.10
2019-04-30T17:36:26.051Z,6.07
2019-04-30T17:39:41.147Z,6.07
2019-04-30T17:50:08.733Z,6.20
2019-04-30T18:42:19.376Z,7.40
2019-04-30T18:45:06.002Z,6.00
2019-04-30T18:48:01.578Z,6.57
2019-04-30T18:56:19.171Z,7.17
2019-04-30T18:59:03.939Z,7.10
2019-04-30T19:01:49.144Z,7.30
2019-04-30T19:04:23.852Z,7.20
2019-04-30T19:06:57.933Z,6.80
2019-04-30T19:13:02.036Z,6.97
2019-04-30T19:16:18.691Z,7.20
2019-04-30T19:22:32.213Z,8.17
2019-04-30T19:25:10.188Z,7.00
2019-04-30T19:28:40.886Z,8.07
2019-04-30T19:31:11.751Z,8.53
2019-04-30T19:33:55.409Z,8.40
2019-04-30T19:36:56.328Z,8.53
2019-04-30T19:39:51.069Z,8.50
2019-04-30T19:42:50.905Z,9.37
2019-04-30T19:45:41.908Z,8.97
2019-04-30T19:48:40.228Z,8.80
2019-04-30T19:51:14.294Z,9.27
2019-04-30T20:18:19.106Z,22.30
2019-04-30T20:21:01.098Z,24.93
2019-04-30T20:24:08.876Z,24.63
2019-04-30T20:31:28.769Z,26.67
2019-04-30T20:34:50.534Z,26.17
2019-04-30T20:37:49.298Z,27.90
2019-04-30T20:41:10.710Z,26.90
2019-04-30T20:44:10.588Z,28.27
